createdAt,value
2018-07-27T00:02:05.634Z,92.40
2018-07-27T00:04:33.750Z,92.60
2018-07-27T00:09:29.382Z,93.50
2018-07-27T00:11:57.358Z,94.00
2018-07-27T00:14:25.124Z,94.70
2018-07-27T00:16:53.076Z,94.90
2018-07-27T00:19:20.986Z,95.50
2018-07-27T00:21:49.272Z,95.90
2018-07-27T00:24:17.403Z,96.60
2018-07-27T00:26:45.354Z,96.80
2018-07-27T00:29:13.369Z,97.00
2018-07-27T00:31:41.383Z,97.20
2018-07-27T00:34:09.162Z,97.60
2018-07-27T00:36:37.443Z,97.90
2018-07-27T00:39:06.701Z,98.10
2018-07-27T00:41:34.629Z,98.50
2018-07-27T00:44:02.947Z,99.10
2018-07-27T00:46:31.548Z,99.60
2018-07-27T00:48:59.526Z,99.80
2018-07-27T00:51:28.441Z,99.90
2018-07-27T00:53:56.466Z,99.90
2018-07-27T00:56:24.449Z,99.90
2018-07-27T00:58:52.427Z,99.90
2018-07-27T01:01:20.435Z,99.90
2018-07-27T01:03:48.413Z,99.90
2018-07-27T01:06:16.369Z,99.90
2018-07-27T01:08:44.451Z,99.90
2018-07-27T01:11:12.355Z,99.90
2018-07-27T01:13:40.391Z,99.90
2018-07-27T01:16:08.370Z,99.90
2018-07-27T01:18:36.698Z,99.90
2018-07-27T01:21:05.085Z,99.90
2018-07-27T01:23:32.912Z,99.90
2018-07-27T01:26:01.022Z,99.90
2018-07-27T01:28:28.859Z,99.90
2018-07-27T01:30:56.844Z,99.90
2018-07-27T01:33:24.896Z,99.90
2018-07-27T01:35:52.770Z,99.90
2018-07-27T01:40:48.616Z,99.90
2018-07-27T01:43:16.517Z,99.90
2018-07-27T01:45:44.640Z,99.90
2018-07-27T01:48:12.848Z,99.90
2018-07-27T01:50:41.222Z,99.90
2018-07-27T01:53:09.234Z,99.90
2018-07-27T01:55:37.439Z,99.90
2018-07-27T01:58:06.439Z,99.90
2018-07-27T02:03:02.223Z,99.90
2018-07-27T02:05:30.167Z,99.90
2018-07-27T02:07:58.172Z,99.90
2018-07-27T02:10:26.286Z,99.90
2018-07-27T02:12:54.527Z,99.90
2018-07-27T02:15:22.707Z,99.90
2018-07-27T02:17:51.002Z,99.90
2018-07-27T02:20:19.188Z,99.90
2018-07-27T02:22:47.046Z,99.90
2018-07-27T02:25:14.992Z,99.90
2018-07-27T02:27:42.980Z,99.90
2018-07-27T02:30:11.270Z,99.90
2018-07-27T02:32:39.480Z,99.90
2018-07-27T02:35:07.877Z,99.90
2018-07-27T02:37:36.037Z,99.90
2018-07-27T02:40:04.990Z,99.90
2018-07-27T02:42:33.009Z,99.90
2018-07-27T02:45:00.980Z,99.90
2018-07-27T02:47:28.838Z,99.90
2018-07-27T02:49:57.141Z,99.90
2018-07-27T02:52:25.133Z,99.90
2018-07-27T02:54:53.186Z,99.90
2018-07-27T02:57:21.289Z,99.90
2018-07-27T02:59:49.230Z,99.90
2018-07-27T03:02:17.325Z,99.90
2018-07-27T03:04:45.275Z,99.90
2018-07-27T03:07:13.494Z,99.90
2018-07-27T03:09:41.698Z,99.90
2018-07-27T03:12:09.723Z,99.90
2018-07-27T03:14:37.693Z,99.90
2018-07-27T03:17:05.903Z,99.90
2018-07-27T03:19:33.879Z,99.90
2018-07-27T03:22:01.679Z,99.90
2018-07-27T03:24:29.577Z,99.90
2018-07-27T03:26:57.683Z,99.90
2018-07-27T03:29:25.724Z,99.90
2018-07-27T03:31:53.805Z,99.90
2018-07-27T03:34:21.723Z,99.90
2018-07-27T03:36:49.957Z,99.90
2018-07-27T03:39:17.972Z,99.90
2018-07-27T03:41:45.972Z,99.90
2018-07-27T03:44:14.024Z,99.90
2018-07-27T03:46:42.193Z,99.90
2018-07-27T03:49:10.255Z,99.90
2018-07-27T03:51:38.033Z,99.90
2018-07-27T03:54:06.083Z,99.90
2018-07-27T03:56:34.237Z,99.90
2018-07-27T03:59:02.407Z,99.90
2018-07-27T04:01:30.717Z,99.90
2018-07-27T04:04:01.992Z,99.90
2018-07-27T04:06:30.208Z,99.90
2018-07-27T04:08:58.222Z,99.90
2018-07-27T04:11:26.397Z,99.90
2018-07-27T04:13:54.488Z,99.90
2018-07-27T04:16:22.425Z,99.90
2018-07-27T04:18:50.152Z,99.90
2018-07-27T04:21:18.212Z,99.90
2018-07-27T04:23:46.178Z,99.90
2018-07-27T04:26:14.071Z,99.90
2018-07-27T04:28:42.105Z,99.90
2018-07-27T04:31:11.037Z,99.90
2018-07-27T04:33:39.167Z,99.90
2018-07-27T04:36:07.360Z,99.90
2018-07-27T04:38:35.692Z,99.90
2018-07-27T04:41:03.855Z,99.90
2018-07-27T04:43:31.922Z,99.90
2018-07-27T04:46:00.464Z,99.90
2018-07-27T04:48:28.608Z,99.90
2018-07-27T04:50:56.977Z,99.90
2018-07-27T04:53:25.239Z,99.90
2018-07-27T04:55:53.600Z,99.90
2018-07-27T04:58:21.637Z,99.90
2018-07-27T05:00:49.716Z,99.90
2018-07-27T05:03:17.659Z,99.90
2018-07-27T05:05:45.675Z,99.90
2018-07-27T05:08:13.692Z,99.90
2018-07-27T05:13:16.417Z,99.90
2018-07-27T05:15:45.573Z,99.90
2018-07-27T05:18:13.634Z,99.90
2018-07-27T05:20:41.649Z,99.90
2018-07-27T05:23:09.515Z,99.90
2018-07-27T05:25:37.740Z,99.90
2018-07-27T05:28:05.952Z,99.90
2018-07-27T05:33:01.878Z,99.90
2018-07-27T05:35:29.764Z,99.90
2018-07-27T05:37:58.964Z,99.90
2018-07-27T05:40:26.920Z,99.90
2018-07-27T05:42:55.212Z,99.90
2018-07-27T05:45:23.358Z,99.90
2018-07-27T05:47:51.588Z,99.90
2018-07-27T05:50:19.749Z,99.90
2018-07-27T05:52:48.298Z,99.90
2018-07-27T05:55:16.467Z,99.90
2018-07-27T05:57:44.461Z,99.90
2018-07-27T06:02:40.718Z,99.90
2018-07-27T06:05:09.047Z,99.90
2018-07-27T06:07:37.605Z,99.90
2018-07-27T06:10:06.134Z,99.90
2018-07-27T06:12:34.513Z,99.90
2018-07-27T06:15:02.558Z,99.90
2018-07-27T06:17:31.830Z,99.90
2018-07-27T06:20:00.018Z,99.90
2018-07-27T06:25:20.642Z,99.90
2018-07-27T06:27:48.783Z,99.90
2018-07-27T06:30:17.274Z,99.90
2018-07-27T06:32:45.963Z,99.80
2018-07-27T06:35:15.916Z,98.90
2018-07-27T06:37:44.148Z,98.10
2018-07-27T06:40:12.851Z,96.70
2018-07-27T06:45:33.100Z,95.80
2018-07-27T06:48:02.260Z,95.20
2018-07-27T06:50:31.203Z,94.10
2018-07-27T06:52:59.408Z,93.70
2018-07-27T06:55:31.260Z,92.90
2018-07-27T06:58:00.756Z,92.20
2018-07-27T07:00:37.262Z,91.70
2018-07-27T07:03:06.110Z,91.30
2018-07-27T07:05:34.070Z,90.60
2018-07-27T07:08:02.800Z,89.60
2018-07-27T07:10:32.004Z,88.20
2018-07-27T07:13:00.904Z,87.10
2018-07-27T07:15:38.814Z,86.70
2018-07-27T07:18:07.882Z,85.30
2018-07-27T07:20:36.978Z,84.20
2018-07-27T07:23:12.507Z,80.80
2018-07-27T07:25:44.634Z,78.20
2018-07-27T07:28:15.803Z,77.40
2018-07-27T07:30:45.236Z,77.40
2018-07-27T07:33:14.038Z,77.70
2018-07-27T07:35:42.864Z,77.30
2018-07-27T07:38:12.776Z,77.10
2018-07-27T07:40:42.022Z,77.80
2018-07-27T07:43:10.996Z,78.40
2018-07-27T07:45:39.791Z,79.10
2018-07-27T07:48:08.339Z,78.60
2018-07-27T07:50:37.156Z,77.90
2018-07-27T07:53:06.517Z,77.40
2018-07-27T07:55:35.516Z,77.60
2018-07-27T07:58:09.525Z,77.50
2018-07-27T08:00:38.700Z,78.10
2018-07-27T08:03:07.878Z,76.00
2018-07-27T08:05:36.761Z,75.00
2018-07-27T08:08:06.036Z,74.30
2018-07-27T08:10:35.428Z,72.80
2018-07-27T08:13:04.736Z,71.10
2018-07-27T08:17:03.542Z,70.10
2018-07-27T08:19:32.290Z,71.00
2018-07-27T08:22:01.614Z,71.50
2018-07-27T08:24:30.376Z,72.00
2018-07-27T08:27:00.650Z,73.00
2018-07-27T08:29:31.570Z,72.50
2018-07-27T08:32:01.111Z,71.10
2018-07-27T08:34:30.192Z,70.80
2018-07-27T08:36:58.948Z,70.30
2018-07-27T08:39:31.330Z,69.20
2018-07-27T08:42:00.228Z,68.80
2018-07-27T08:44:31.294Z,68.50
2018-07-27T08:47:06.419Z,66.80
2018-07-27T08:49:35.934Z,65.90
2018-07-27T08:52:04.530Z,66.00
2018-07-27T08:54:33.431Z,65.30
2018-07-27T08:57:02.696Z,65.20
2018-07-27T08:59:31.769Z,64.60
2018-07-27T09:02:00.666Z,64.10
2018-07-27T09:04:30.386Z,63.50
2018-07-27T09:06:59.269Z,63.30
2018-07-27T09:09:28.064Z,63.20
2018-07-27T09:11:57.006Z,63.00
2018-07-27T09:14:29.476Z,62.70
2018-07-27T09:16:58.448Z,62.90
2018-07-27T09:19:27.468Z,63.10
2018-07-27T09:21:56.212Z,61.90
2018-07-27T09:24:25.410Z,61.60
2018-07-27T09:26:54.173Z,62.00
2018-07-27T09:29:22.976Z,60.80
2018-07-27T09:31:52.035Z,60.10
2018-07-27T09:35:50.469Z,59.70
2018-07-27T09:38:19.042Z,59.60
2018-07-27T09:40:48.802Z,58.80
2018-07-27T09:43:18.225Z,59.00
2018-07-27T09:45:46.732Z,58.60
2018-07-27T09:48:15.424Z,58.50
2018-07-27T09:50:44.860Z,58.70
2018-07-27T09:53:13.964Z,59.50
2018-07-27T09:55:43.246Z,60.00
2018-07-27T09:58:11.955Z,59.90
2018-07-27T10:00:45.755Z,60.20
2018-07-27T10:03:14.248Z,60.10
2018-07-27T10:05:42.861Z,60.00
2018-07-27T10:08:11.724Z,60.80
2018-07-27T10:13:08.946Z,61.40
2018-07-27T10:15:37.462Z,58.50
2018-07-27T10:18:06.209Z,58.50
2018-07-27T10:20:34.686Z,58.60
2018-07-27T10:23:03.228Z,58.10
2018-07-27T10:28:00.928Z,58.60
2018-07-27T10:30:30.024Z,58.80
2018-07-27T10:32:58.517Z,59.10
2018-07-27T10:35:27.049Z,59.70
2018-07-27T10:37:55.645Z,60.10
2018-07-27T10:40:24.378Z,60.40
2018-07-27T10:42:53.329Z,59.90
2018-07-27T10:45:23.416Z,60.40
2018-07-27T10:47:53.648Z,60.80
2018-07-27T10:50:24.382Z,61.50
2018-07-27T10:52:53.540Z,60.90
2018-07-27T10:55:30.603Z,60.60
2018-07-27T10:58:03.962Z,59.00
2018-07-27T11:00:37.704Z,58.00
2018-07-27T11:03:06.403Z,57.30
2018-07-27T11:08:21.160Z,57.50
2018-07-27T11:13:43.022Z,57.60
2018-07-27T11:16:12.994Z,56.00
2018-07-27T11:18:44.019Z,55.20
2018-07-27T11:21:13.061Z,54.50
2018-07-27T11:26:31.148Z,53.80
2018-07-27T11:29:05.420Z,53.30
2018-07-27T11:31:34.079Z,52.50
2018-07-27T11:34:05.304Z,52.10
2018-07-27T11:36:37.144Z,51.70
2018-07-27T11:41:59.688Z,51.80
2018-07-27T11:44:31.477Z,51.40
2018-07-27T11:47:03.412Z,51.00
2018-07-27T11:49:33.449Z,51.40
2018-07-27T11:52:03.121Z,52.00
2018-07-27T11:54:43.616Z,52.40
2018-07-27T11:57:14.022Z,53.40
2018-07-27T11:59:43.147Z,54.00
2018-07-27T12:03:42.532Z,54.30
2018-07-27T12:06:12.148Z,55.00
2018-07-27T12:08:40.732Z,55.30
2018-07-27T12:11:09.217Z,55.70
2018-07-27T12:13:37.696Z,56.00
2018-07-27T12:16:06.355Z,56.60
2018-07-27T12:18:34.884Z,57.20
2018-07-27T12:21:03.495Z,58.20
2018-07-27T12:23:31.997Z,58.60
2018-07-27T12:26:00.464Z,59.00
2018-07-27T12:28:28.963Z,59.50
2018-07-27T12:30:57.456Z,61.20
2018-07-27T12:33:25.891Z,60.10
2018-07-27T12:35:54.372Z,60.50
2018-07-27T12:38:22.884Z,61.00
2018-07-27T12:40:52.324Z,61.20
2018-07-27T12:43:20.846Z,61.40
2018-07-27T12:45:49.340Z,61.40
2018-07-27T12:48:17.797Z,61.60
2018-07-27T12:50:46.292Z,61.40
2018-07-27T12:53:14.917Z,61.10
2018-07-27T12:55:43.383Z,61.10
2018-07-27T12:58:11.854Z,61.00
2018-07-27T13:00:40.384Z,61.00
2018-07-27T13:03:08.916Z,60.70
2018-07-27T13:05:37.428Z,60.20
2018-07-27T13:08:05.976Z,60.50
2018-07-27T13:10:34.798Z,59.70
2018-07-27T13:13:03.309Z,58.80
2018-07-27T13:15:31.816Z,58.50
2018-07-27T13:18:00.313Z,58.80
2018-07-27T13:21:02.746Z,58.90
2018-07-27T13:23:31.216Z,58.30
2018-07-27T13:28:44.435Z,55.40
2018-07-27T13:31:13.419Z,55.20
2018-07-27T13:33:53.210Z,55.00
2018-07-27T13:36:21.682Z,54.30
2018-07-27T13:38:50.223Z,54.00
2018-07-27T13:41:18.708Z,54.40
2018-07-27T13:43:47.217Z,54.10
2018-07-27T13:46:15.786Z,54.50
2018-07-27T13:48:44.385Z,55.30
2018-07-27T13:51:12.963Z,55.90
2018-07-27T13:53:41.519Z,56.00
2018-07-27T13:56:10.170Z,56.50
2018-07-27T13:58:38.729Z,56.50
2018-07-27T14:01:07.414Z,56.70
2018-07-27T14:03:36.031Z,57.10
2018-07-27T14:06:04.505Z,57.10
2018-07-27T14:11:01.153Z,57.40
2018-07-27T14:13:29.679Z,57.70
2018-07-27T14:15:58.856Z,57.20
2018-07-27T14:18:27.416Z,57.70
2018-07-27T14:20:55.909Z,57.30
2018-07-27T14:25:58.986Z,56.20
2018-07-27T14:28:27.709Z,56.20
2018-07-27T14:32:25.528Z,56.10
2018-07-27T14:34:54.189Z,55.80
2018-07-27T14:37:22.776Z,55.80
2018-07-27T14:39:51.259Z,56.00
2018-07-27T14:42:19.860Z,56.00
2018-07-27T14:44:48.405Z,55.90
2018-07-27T14:49:45.265Z,57.00
2018-07-27T14:52:14.082Z,56.50
2018-07-27T14:54:42.790Z,56.60
2018-07-27T14:57:11.525Z,56.10
2018-07-27T14:59:40.109Z,56.10
2018-07-27T15:02:09.097Z,56.40
2018-07-27T15:04:37.810Z,56.30
2018-07-27T15:07:06.555Z,56.20
2018-07-27T15:09:35.333Z,56.90
2018-07-27T15:12:04.327Z,56.00
2018-07-27T15:14:33.429Z,55.50
2018-07-27T15:17:02.258Z,55.90
2018-07-27T15:19:31.381Z,56.10
2018-07-27T15:22:00.351Z,56.20
2018-07-27T15:24:29.575Z,56.00
2018-07-27T15:26:58.755Z,55.80
2018-07-27T15:29:27.638Z,56.00
2018-07-27T15:31:56.745Z,56.60
2018-07-27T15:34:25.458Z,55.30
2018-07-27T15:36:55.862Z,55.80
2018-07-27T15:41:53.922Z,56.60
2018-07-27T15:44:23.048Z,57.10
2018-07-27T15:46:52.119Z,57.80
2018-07-27T15:49:20.902Z,58.40
2018-07-27T15:51:49.679Z,59.20
2018-07-27T15:54:18.258Z,59.80
2018-07-27T15:56:47.268Z,60.80
2018-07-27T15:59:16.781Z,61.30
2018-07-27T16:01:46.075Z,61.90
2018-07-27T16:04:15.045Z,62.60
2018-07-27T16:06:44.044Z,63.20
2018-07-27T16:09:13.424Z,63.60
2018-07-27T16:11:42.133Z,64.10
2018-07-27T16:14:10.734Z,64.30
2018-07-27T16:16:39.675Z,64.60
2018-07-27T16:19:08.693Z,64.90
2018-07-27T16:21:37.585Z,65.10
2018-07-27T16:24:06.617Z,65.50
2018-07-27T16:26:35.207Z,65.80
2018-07-27T16:29:04.034Z,66.10
2018-07-27T16:31:32.881Z,66.30
2018-07-27T16:34:01.762Z,66.40
2018-07-27T16:36:30.609Z,66.30
2018-07-27T16:46:25.493Z,67.50
2018-07-27T16:48:54.300Z,67.90
2018-07-27T16:51:23.079Z,69.10
2018-07-27T16:53:51.981Z,69.80
2018-07-27T16:56:20.986Z,70.00
2018-07-27T16:58:49.960Z,70.50
2018-07-27T17:01:18.850Z,71.30
2018-07-27T17:03:47.654Z,71.60
2018-07-27T17:06:16.516Z,71.90
2018-07-27T17:08:44.454Z,72.00
2018-07-27T17:11:13.379Z,73.30
2018-07-27T17:13:42.212Z,72.70
2018-07-27T17:16:15.413Z,73.40
2018-07-27T17:18:43.630Z,74.10
2018-07-27T17:21:12.799Z,74.70
2018-07-27T17:23:45.490Z,74.80
2018-07-27T17:29:11.162Z,76.10
2018-07-27T17:34:26.467Z,76.40
2018-07-27T17:36:55.072Z,76.80
2018-07-27T17:39:24.615Z,77.60
2018-07-27T17:41:55.258Z,78.80
2018-07-27T17:44:23.846Z,79.60
2018-07-27T17:49:20.651Z,81.10
2018-07-27T17:51:49.221Z,81.50
2018-07-27T17:54:17.756Z,82.20
2018-07-27T17:56:46.352Z,83.40
2018-07-27T17:59:14.870Z,84.50
2018-07-27T18:01:43.487Z,85.40
2018-07-27T18:04:12.145Z,86.10
2018-07-27T18:06:40.692Z,86.70
2018-07-27T18:09:11.258Z,87.30
2018-07-27T18:11:40.051Z,87.80
2018-07-27T18:14:08.686Z,88.40
2018-07-27T18:16:37.160Z,89.40
2018-07-27T18:19:06.261Z,90.00
2018-07-27T18:21:34.787Z,90.20
2018-07-27T18:24:03.326Z,90.60
2018-07-27T18:26:31.892Z,91.00
2018-07-27T18:29:00.874Z,91.30
2018-07-27T18:31:28.859Z,91.60
2018-07-27T18:33:57.350Z,92.00
2018-07-27T18:36:25.854Z,92.50
2018-07-27T18:38:54.488Z,92.90
2018-07-27T18:41:23.110Z,93.50
2018-07-27T18:43:51.825Z,94.00
2018-07-27T18:46:20.145Z,94.50
2018-07-27T18:48:48.008Z,95.00
2018-07-27T18:51:15.778Z,95.50
2018-07-27T18:53:50.684Z,96.10
2018-07-27T18:56:18.641Z,96.60
2018-07-27T18:58:46.682Z,97.10
2018-07-27T19:01:14.783Z,97.40
2018-07-27T19:03:44.066Z,97.70
2018-07-27T19:06:14.332Z,98.00
2018-07-27T19:08:42.091Z,98.30
2018-07-27T19:11:14.155Z,98.60
2018-07-27T19:13:43.581Z,99.10
2018-07-27T19:16:12.188Z,99.50
2018-07-27T19:18:41.541Z,99.60
2018-07-27T19:21:10.282Z,99.90
2018-07-27T19:23:40.763Z,99.90
2018-07-27T19:26:10.116Z,99.90
2018-07-27T19:28:39.918Z,99.90
2018-07-27T19:31:08.360Z,99.90
2018-07-27T19:33:42.489Z,99.90
2018-07-27T19:36:10.428Z,99.90
2018-07-27T19:38:38.198Z,99.90
2018-07-27T19:41:07.196Z,99.90
2018-07-27T19:43:35.444Z,99.90
2018-07-27T19:46:03.223Z,99.90
2018-07-27T19:51:12.852Z,99.90
2018-07-27T19:53:41.274Z,99.90
2018-07-27T19:56:10.060Z,99.90
2018-07-27T19:58:38.464Z,99.90
2018-07-27T20:01:07.520Z,99.90
2018-07-27T20:03:35.642Z,99.90
2018-07-27T20:08:49.137Z,99.90
2018-07-27T20:17:15.829Z,99.90
2018-07-27T20:19:47.475Z,99.90
2018-07-27T20:22:20.124Z,99.90
2018-07-27T20:24:55.838Z,99.90
2018-07-27T20:27:24.359Z,99.90
2018-07-27T20:32:20.280Z,99.90
2018-07-27T20:34:48.254Z,99.90
2018-07-27T20:39:53.374Z,99.90
2018-07-27T20:42:22.971Z,99.90
2018-07-27T20:47:35.955Z,99.90
2018-07-27T20:50:07.118Z,99.90
2018-07-27T20:52:39.155Z,99.90
2018-07-27T20:55:15.933Z,99.90
2018-07-27T20:57:43.965Z,99.90
2018-07-27T21:00:13.149Z,99.90
2018-07-27T21:02:41.714Z,99.90
2018-07-27T21:05:09.672Z,99.90
2018-07-27T21:07:41.459Z,99.90
2018-07-27T21:10:16.727Z,99.90
2018-07-27T21:12:51.841Z,99.90
2018-07-27T21:15:19.742Z,99.90
2018-07-27T21:17:48.227Z,99.90
2018-07-27T21:20:16.665Z,99.90
2018-07-27T21:22:45.035Z,99.90
2018-07-27T21:25:12.887Z,99.90
2018-07-27T21:27:48.919Z,99.90
2018-07-27T21:30:22.421Z,99.90
2018-07-27T21:32:50.437Z,99.90
2018-07-27T21:35:18.412Z,99.90
2018-07-27T21:37:48.608Z,99.90
2018-07-27T21:40:16.629Z,99.90
2018-07-27T21:45:27.440Z,99.90
2018-07-27T21:47:58.422Z,99.90
2018-07-27T21:50:32.017Z,99.90
2018-07-27T21:53:03.563Z,99.90
2018-07-27T21:55:43.210Z,99.90
2018-07-27T21:58:20.353Z,99.90
2018-07-27T22:00:48.577Z,99.90
2018-07-27T22:03:19.313Z,99.90
2018-07-27T22:05:50.587Z,99.90
2018-07-27T22:08:24.412Z,99.90
2018-07-27T22:10:52.439Z,99.90
2018-07-27T22:13:20.354Z,99.90
2018-07-27T22:15:48.251Z,99.90
2018-07-27T22:18:16.128Z,99.90
2018-07-27T22:20:43.981Z,99.90
2018-07-27T22:23:11.761Z,99.90
2018-07-27T22:25:41.254Z,99.90
2018-07-27T22:28:10.152Z,99.90
2018-07-27T22:30:40.496Z,99.90
2018-07-27T22:33:11.987Z,99.90
2018-07-27T22:35:43.327Z,99.90
2018-07-27T22:38:11.204Z,99.90
2018-07-27T22:40:38.996Z,99.90
2018-07-27T22:43:08.690Z,99.90
2018-07-27T22:45:38.525Z,99.90
2018-07-27T22:48:12.838Z,99.90
2018-07-27T22:50:40.919Z,99.90
2018-07-27T22:53:08.857Z,99.90
2018-07-27T22:55:41.837Z,99.90
2018-07-27T22:58:09.990Z,99.90
2018-07-27T23:00:38.655Z,99.90
2018-07-27T23:03:19.045Z,99.90
2018-07-27T23:05:47.048Z,99.90
2018-07-27T23:08:15.233Z,99.90
2018-07-27T23:10:43.253Z,99.90
2018-07-27T23:13:11.509Z,99.90
2018-07-27T23:15:39.516Z,99.90
2018-07-27T23:18:07.507Z,99.90
2018-07-27T23:20:35.411Z,99.90
2018-07-27T23:23:03.308Z,99.90
2018-07-27T23:25:31.177Z,99.90
2018-07-27T23:27:58.988Z,99.90
2018-07-27T23:30:27.009Z,99.90
2018-07-27T23:32:55.917Z,99.90
2018-07-27T23:35:23.831Z,99.90
2018-07-27T23:37:51.797Z,99.90
2018-07-27T23:40:19.683Z,99.90
2018-07-27T23:42:47.598Z,99.90
2018-07-27T23:45:15.370Z,99.90
2018-07-27T23:47:43.109Z,99.90
2018-07-27T23:50:10.869Z,99.90
2018-07-27T23:52:38.600Z,99.90
2018-07-27T23:55:06.583Z,99.90
2018-07-27T23:57:34.661Z,99.90
